createdAt,value
2023-03-17T00:01:54.246Z,3.43
2023-03-17T00:04:24.091Z,4.27
2023-03-17T00:06:51.824Z,3.90
2023-03-17T00:09:20.272Z,6.33
2023-03-17T00:11:47.847Z,3.80
2023-03-17T00:14:15.162Z,3.73
2023-03-17T00:16:49.616Z,3.60
2023-03-17T00:19:18.154Z,3.50
2023-03-17T00:21:48.770Z,3.63
2023-03-17T00:24:16.143Z,6.23
2023-03-17T00:26:43.620Z,3.70
2023-03-17T00:29:10.955Z,3.30
2023-03-17T00:31:39.213Z,3.53
2023-03-17T00:34:07.515Z,4.23
2023-03-17T00:36:35.021Z,4.17
2023-03-17T00:39:02.223Z,4.00
2023-03-17T00:41:29.623Z,3.53
2023-03-17T00:43:57.694Z,3.47
2023-03-17T00:46:35.941Z,3.57
2023-03-17T00:49:10.555Z,3.80
2023-03-17T00:51:37.714Z,3.63
2023-03-17T00:54:05.016Z,3.73
2023-03-17T00:56:32.264Z,3.43
2023-03-17T00:58:59.434Z,4.17
2023-03-17T01:01:26.840Z,3.67
2023-03-17T01:03:54.147Z,3.80
2023-03-17T01:06:21.331Z,3.97
2023-03-17T01:08:48.777Z,3.43
2023-03-17T01:11:19.040Z,3.73
2023-03-17T01:13:46.792Z,4.10
2023-03-17T01:16:15.542Z,3.50
2023-03-17T01:18:43.552Z,3.70
2023-03-17T01:21:10.832Z,4.40
2023-03-17T01:23:38.056Z,3.90
2023-03-17T01:26:06.608Z,4.30
2023-03-17T01:28:34.165Z,3.57
2023-03-17T01:31:02.753Z,3.97
2023-03-17T01:33:30.031Z,3.77
2023-03-17T01:35:57.605Z,3.50
2023-03-17T01:38:24.893Z,3.50
2023-03-17T01:40:52.396Z,3.90
2023-03-17T01:43:25.752Z,3.90
2023-03-17T01:46:25.372Z,3.83
2023-03-17T01:49:13.428Z,4.23
2023-03-17T01:51:46.797Z,3.57
2023-03-17T01:54:40.053Z,3.60
2023-03-17T01:57:23.531Z,4.07
2023-03-17T01:59:55.452Z,3.77
2023-03-17T02:02:28.638Z,4.17
2023-03-17T02:04:56.809Z,3.50
2023-03-17T02:07:26.622Z,3.80
2023-03-17T02:09:55.398Z,3.80
2023-03-17T02:12:23.919Z,3.60
2023-03-17T02:14:51.908Z,3.87
2023-03-17T02:17:21.203Z,3.55
2023-03-17T02:19:48.635Z,4.00
2023-03-17T02:22:17.382Z,3.90
2023-03-17T02:24:51.237Z,3.70
2023-03-17T02:27:33.370Z,4.13
2023-03-17T02:30:01.131Z,4.43
2023-03-17T02:32:28.406Z,3.80
2023-03-17T02:34:56.078Z,4.07
2023-03-17T02:37:23.652Z,4.27
2023-03-17T02:39:50.828Z,4.33
2023-03-17T02:42:18.090Z,3.70
2023-03-17T02:44:45.497Z,3.97
2023-03-17T02:47:13.055Z,3.53
2023-03-17T02:49:41.543Z,3.53
2023-03-17T02:52:09.334Z,3.50
2023-03-17T02:54:36.543Z,4.23
2023-03-17T02:57:03.882Z,4.07
2023-03-17T02:59:31.976Z,3.80
2023-03-17T03:01:59.132Z,4.00
2023-03-17T03:04:26.365Z,3.97
2023-03-17T03:06:54.077Z,4.30
2023-03-17T03:09:21.625Z,3.83
2023-03-17T03:11:48.931Z,3.93
2023-03-17T03:14:16.323Z,4.03
2023-03-17T03:16:43.680Z,3.80
2023-03-17T03:19:10.897Z,3.97
2023-03-17T03:21:38.076Z,4.10
2023-03-17T03:24:06.512Z,4.20
2023-03-17T03:26:33.878Z,3.90
2023-03-17T03:29:01.100Z,4.90
2023-03-17T03:31:28.691Z,3.70
2023-03-17T03:33:56.139Z,5.40
2023-03-17T03:36:23.462Z,4.03
2023-03-17T03:38:50.996Z,3.93
2023-03-17T03:41:18.299Z,4.27
2023-03-17T03:43:45.502Z,3.73
2023-03-17T03:46:12.722Z,3.83
2023-03-17T03:48:39.907Z,4.67
2023-03-17T03:51:07.068Z,3.70
2023-03-17T03:53:34.396Z,4.17
2023-03-17T03:56:01.996Z,3.97
2023-03-17T03:58:29.254Z,3.90
2023-03-17T04:00:56.984Z,4.17
2023-03-17T04:03:24.199Z,3.93
2023-03-17T04:05:51.409Z,4.40
2023-03-17T04:08:18.625Z,3.97
2023-03-17T04:10:45.799Z,4.37
2023-03-17T04:13:14.122Z,4.53
2023-03-17T04:15:42.632Z,4.33
2023-03-17T04:18:09.818Z,4.13
2023-03-17T04:20:37.474Z,4.47
2023-03-17T04:23:04.655Z,4.17
2023-03-17T04:25:32.530Z,4.07
2023-03-17T04:27:59.768Z,3.87
2023-03-17T04:30:27.318Z,4.20
2023-03-17T04:32:54.580Z,4.50
2023-03-17T04:35:22.572Z,3.83
2023-03-17T04:37:50.460Z,4.20
2023-03-17T04:40:18.841Z,3.90
2023-03-17T04:42:46.439Z,4.00
2023-03-17T04:45:17.062Z,3.87
2023-03-17T04:47:46.219Z,3.60
2023-03-17T04:50:14.576Z,3.97
2023-03-17T04:52:42.144Z,4.07
2023-03-17T04:55:09.687Z,4.40
2023-03-17T04:57:37.300Z,4.07
2023-03-17T05:00:08.131Z,3.67
2023-03-17T05:02:35.511Z,3.93
2023-03-17T05:05:02.879Z,3.93
2023-03-17T05:07:30.932Z,4.10
2023-03-17T05:09:59.395Z,4.17
2023-03-17T05:12:26.992Z,4.70
2023-03-17T05:14:54.172Z,3.80
2023-03-17T05:17:21.483Z,4.27
2023-03-17T05:19:48.790Z,4.00
2023-03-17T05:22:16.282Z,4.17
2023-03-17T05:24:43.521Z,3.70
2023-03-17T05:27:11.024Z,4.33
2023-03-17T05:29:38.266Z,3.93
2023-03-17T05:32:05.736Z,4.17
2023-03-17T05:34:33.559Z,4.07
2023-03-17T05:37:01.339Z,4.37
2023-03-17T05:39:28.635Z,4.27
2023-03-17T05:41:56.937Z,4.20
2023-03-17T05:44:24.180Z,3.80
2023-03-17T05:46:51.510Z,4.23
2023-03-17T05:49:19.170Z,3.90
2023-03-17T05:51:46.442Z,3.97
2023-03-17T05:54:13.953Z,4.30
2023-03-17T05:56:42.773Z,3.57
2023-03-17T05:59:10.569Z,3.70
2023-03-17T06:01:37.809Z,3.90
2023-03-17T06:04:05.019Z,3.80
2023-03-17T06:06:32.327Z,3.60
2023-03-17T06:08:59.800Z,3.97
2023-03-17T06:11:26.977Z,3.83
2023-03-17T06:13:54.236Z,3.67
2023-03-17T06:16:21.457Z,4.00
2023-03-17T06:18:48.720Z,4.10
2023-03-17T06:21:16.342Z,3.83
2023-03-17T06:23:43.673Z,4.20
2023-03-17T06:26:10.999Z,3.70
2023-03-17T06:28:38.225Z,3.53
2023-03-17T06:31:07.332Z,3.87
2023-03-17T06:33:35.378Z,3.80
2023-03-17T06:36:03.374Z,3.80
2023-03-17T06:38:30.608Z,3.40
2023-03-17T06:40:58.041Z,3.60
2023-03-17T06:43:25.321Z,4.17
2023-03-17T06:45:52.653Z,3.50
2023-03-17T06:48:19.982Z,3.70
2023-03-17T06:50:47.775Z,3.97
2023-03-17T06:53:15.022Z,3.60
2023-03-17T06:55:42.221Z,3.50
2023-03-17T06:58:10.609Z,3.60
2023-03-17T07:00:41.056Z,4.70
2023-03-17T07:03:09.987Z,3.80
2023-03-17T07:05:39.391Z,3.30
2023-03-17T07:08:06.782Z,3.30
2023-03-17T07:10:34.061Z,3.30
2023-03-17T07:13:02.442Z,3.97
2023-03-17T07:15:34.717Z,3.73
2023-03-17T07:18:02.413Z,4.37
2023-03-17T07:20:29.658Z,3.47
2023-03-17T07:22:56.909Z,3.33
2023-03-17T07:25:24.175Z,3.13
2023-03-17T07:27:52.044Z,4.00
2023-03-17T07:30:19.508Z,3.00
2023-03-17T07:32:47.772Z,3.28
2023-03-17T07:35:16.138Z,3.20
2023-03-17T07:37:44.294Z,3.90
2023-03-17T07:40:11.913Z,3.20
2023-03-17T07:42:39.137Z,3.20
2023-03-17T07:45:07.989Z,3.40
2023-03-17T07:47:35.255Z,3.20
2023-03-17T07:50:02.517Z,3.30
2023-03-17T07:52:29.825Z,3.33
2023-03-17T07:54:58.302Z,2.90
2023-03-17T07:57:25.574Z,3.13
2023-03-17T07:59:52.909Z,3.17
2023-03-17T08:02:21.148Z,2.87
2023-03-17T08:04:48.511Z,3.30
2023-03-17T08:07:15.767Z,3.10
2023-03-17T08:09:42.973Z,2.90
2023-03-17T08:12:10.452Z,2.83
2023-03-17T08:14:37.680Z,3.30
2023-03-17T08:17:05.014Z,2.93
2023-03-17T08:19:32.267Z,3.20
2023-03-17T08:21:59.485Z,2.80
2023-03-17T08:24:27.130Z,2.90
2023-03-17T08:26:54.565Z,3.23
2023-03-17T08:29:21.880Z,2.80
2023-03-17T08:31:49.168Z,3.10
2023-03-17T08:34:16.609Z,3.10
2023-03-17T08:36:43.946Z,2.90
2023-03-17T08:39:11.190Z,2.57
2023-03-17T08:41:38.658Z,2.90
2023-03-17T08:44:05.922Z,2.70
2023-03-17T08:46:33.531Z,2.97
2023-03-17T08:49:01.841Z,2.97
2023-03-17T08:51:31.690Z,2.50
2023-03-17T08:53:59.798Z,2.97
2023-03-17T08:56:27.081Z,3.03
2023-03-17T08:58:54.579Z,3.17
2023-03-17T09:01:23.107Z,2.83
2023-03-17T09:03:52.845Z,2.70
2023-03-17T09:06:20.218Z,2.90
2023-03-17T09:08:49.709Z,2.67
2023-03-17T09:11:20.338Z,2.63
2023-03-17T09:13:47.824Z,2.50
2023-03-17T09:16:17.402Z,3.10
2023-03-17T09:18:46.079Z,2.40
2023-03-17T09:21:14.162Z,2.40
2023-03-17T09:23:41.663Z,2.90
2023-03-17T09:26:10.195Z,2.30
2023-03-17T09:28:37.482Z,2.20
2023-03-17T09:31:07.786Z,2.30
2023-03-17T09:33:35.064Z,2.33
2023-03-17T09:36:02.298Z,2.30
2023-03-17T09:38:29.902Z,2.47
2023-03-17T09:41:08.470Z,2.40
2023-03-17T09:43:59.547Z,2.20
2023-03-17T09:46:32.377Z,2.43
2023-03-17T09:49:17.050Z,2.20
2023-03-17T09:51:46.376Z,2.50
2023-03-17T09:54:24.112Z,2.33
2023-03-17T09:57:16.733Z,2.37
2023-03-17T10:00:06.633Z,2.60
2023-03-17T10:02:37.883Z,2.47
2023-03-17T10:05:26.150Z,2.40
2023-03-17T10:08:29.404Z,2.00
2023-03-17T10:11:24.938Z,2.23
2023-03-17T10:14:18.238Z,2.13
2023-03-17T10:16:54.037Z,2.20
2023-03-17T10:19:38.422Z,2.67
2023-03-17T10:22:38.422Z,3.23
2023-03-17T10:25:14.701Z,2.13
2023-03-17T10:27:44.884Z,2.40
2023-03-17T10:30:21.134Z,2.43
2023-03-17T10:32:48.726Z,2.37
2023-03-17T10:35:16.738Z,2.40
2023-03-17T10:37:46.588Z,2.43
2023-03-17T10:40:28.576Z,2.50
2023-03-17T10:43:03.757Z,2.20
2023-03-17T10:45:33.048Z,4.07
2023-03-17T10:48:02.642Z,2.07
2023-03-17T10:50:32.800Z,2.00
2023-03-17T10:53:18.410Z,2.10
2023-03-17T10:55:53.088Z,1.93
2023-03-17T10:58:32.960Z,2.10
2023-03-17T11:01:27.275Z,2.10
2023-03-17T11:03:54.600Z,1.80
2023-03-17T11:06:38.406Z,1.70
2023-03-17T11:09:09.705Z,2.00
2023-03-17T11:11:45.229Z,1.97
2023-03-17T11:14:15.454Z,2.00
2023-03-17T11:16:57.609Z,2.07
2023-03-17T11:19:38.735Z,1.90
2023-03-17T11:22:15.697Z,2.00
2023-03-17T11:24:52.675Z,2.10
2023-03-17T11:27:32.596Z,1.67
2023-03-17T11:30:25.022Z,1.70
2023-03-17T11:33:00.144Z,1.90
2023-03-17T11:35:58.692Z,2.00
2023-03-17T11:38:31.656Z,2.47
2023-03-17T11:41:04.911Z,1.70
2023-03-17T11:43:37.552Z,1.97
2023-03-17T11:46:21.105Z,2.13
2023-03-17T11:49:28.632Z,1.60
2023-03-17T11:52:07.829Z,1.90
2023-03-17T11:54:59.016Z,1.70
2023-03-17T11:57:33.571Z,1.70
2023-03-17T12:00:16.218Z,2.20
2023-03-17T12:03:09.495Z,1.70
2023-03-17T12:05:37.326Z,1.50
2023-03-17T12:08:29.955Z,2.00
2023-03-17T12:11:01.105Z,1.53
2023-03-17T12:13:59.587Z,1.93
2023-03-17T12:16:26.743Z,1.77
2023-03-17T12:19:09.267Z,2.47
2023-03-17T12:21:42.956Z,1.97
2023-03-17T12:24:35.506Z,1.43
2023-03-17T12:27:14.549Z,1.40
2023-03-17T12:29:47.373Z,1.60
2023-03-17T12:32:29.399Z,1.87
2023-03-17T12:34:58.275Z,3.30
2023-03-17T12:37:28.177Z,1.67
2023-03-17T12:40:10.821Z,2.00
2023-03-17T12:43:03.559Z,1.47
2023-03-17T12:45:54.199Z,1.57
2023-03-17T12:48:37.022Z,1.60
2023-03-17T12:51:31.062Z,1.60
2023-03-17T12:53:59.593Z,2.53
2023-03-17T12:56:29.668Z,1.80
2023-03-17T12:59:08.961Z,1.80
2023-03-17T13:02:06.815Z,1.90
2023-03-17T13:04:36.634Z,1.57
2023-03-17T13:07:15.862Z,1.60
2023-03-17T13:09:53.633Z,3.30
2023-03-17T13:12:57.029Z,1.55
2023-03-17T13:15:36.245Z,1.60
2023-03-17T13:18:18.461Z,1.60
2023-03-17T13:20:45.848Z,1.67
2023-03-17T13:23:16.385Z,1.70
2023-03-17T13:25:45.517Z,1.77
2023-03-17T13:28:12.841Z,1.60
2023-03-17T13:30:40.041Z,1.60
2023-03-17T13:33:09.838Z,1.50
2023-03-17T13:35:48.465Z,2.13
2023-03-17T13:38:15.644Z,2.17
2023-03-17T13:41:06.862Z,1.97
2023-03-17T13:44:01.810Z,1.50
2023-03-17T13:46:41.342Z,1.90
2023-03-17T13:49:24.167Z,2.43
2023-03-17T13:52:14.833Z,1.30
2023-03-17T13:55:03.031Z,3.10
2023-03-17T13:57:37.154Z,3.17
2023-03-17T14:00:05.682Z,1.53
2023-03-17T14:02:35.220Z,1.50
2023-03-17T14:05:06.319Z,1.90
2023-03-17T14:07:49.380Z,1.90
2023-03-17T14:10:22.714Z,2.47
2023-03-17T14:12:51.263Z,1.80
2023-03-17T14:15:51.433Z,2.47
2023-03-17T14:18:21.478Z,1.80
2023-03-17T14:20:55.819Z,1.80
2023-03-17T14:23:24.119Z,2.13
2023-03-17T14:25:51.861Z,1.80
2023-03-17T14:28:25.650Z,2.27
2023-03-17T14:31:01.140Z,3.50
2023-03-17T14:33:33.718Z,2.00
2023-03-17T14:36:02.632Z,1.77
2023-03-17T14:38:32.364Z,1.83
2023-03-17T14:41:15.755Z,1.50
2023-03-17T14:43:44.130Z,1.40
2023-03-17T14:46:18.003Z,1.87
2023-03-17T14:48:48.876Z,1.87
2023-03-17T14:51:24.577Z,1.60
2023-03-17T14:53:52.971Z,1.90
2023-03-17T14:56:25.945Z,1.87
2023-03-17T14:58:53.222Z,1.63
2023-03-17T15:01:35.048Z,1.70
2023-03-17T15:04:31.611Z,1.97
2023-03-17T15:07:04.846Z,1.80
2023-03-17T15:09:38.621Z,1.70
2023-03-17T15:12:15.484Z,2.37
2023-03-17T15:14:44.377Z,1.50
2023-03-17T15:17:22.586Z,2.43
2023-03-17T15:19:52.668Z,1.60
2023-03-17T15:22:28.473Z,1.60
2023-03-17T15:25:18.618Z,1.53
2023-03-17T15:27:46.560Z,1.90
2023-03-17T15:30:13.941Z,1.57
2023-03-17T15:32:41.220Z,1.70
2023-03-17T15:35:12.902Z,2.23
2023-03-17T15:37:40.504Z,1.50
2023-03-17T15:40:09.396Z,1.50
2023-03-17T15:42:39.469Z,1.50
2023-03-17T15:45:07.164Z,1.47
2023-03-17T15:47:41.677Z,1.70
2023-03-17T15:50:25.300Z,2.20
2023-03-17T15:52:58.973Z,2.00
2023-03-17T15:55:32.025Z,1.70
2023-03-17T15:57:59.519Z,1.50
2023-03-17T16:00:29.902Z,2.13
2023-03-17T16:03:15.079Z,2.60
2023-03-17T16:05:43.449Z,1.60
2023-03-17T16:08:14.126Z,1.37
2023-03-17T16:10:41.365Z,1.53
2023-03-17T16:13:08.554Z,1.60
2023-03-17T16:15:39.033Z,1.70
2023-03-17T16:18:11.671Z,1.87
2023-03-17T16:20:42.750Z,2.40
2023-03-17T16:23:26.320Z,1.67
2023-03-17T16:25:55.477Z,1.80
2023-03-17T16:28:28.497Z,1.80
2023-03-17T16:30:57.266Z,2.30
2023-03-17T16:33:31.414Z,1.60
2023-03-17T16:36:00.724Z,2.07
2023-03-17T16:38:31.327Z,1.53
2023-03-17T16:41:13.115Z,1.70
2023-03-17T16:43:43.486Z,1.77
2023-03-17T16:46:11.441Z,1.50
2023-03-17T16:48:38.793Z,1.50
2023-03-17T16:51:06.060Z,1.77
2023-03-17T16:53:33.611Z,1.80
2023-03-17T16:56:00.972Z,2.53
2023-03-17T16:58:32.670Z,1.80
2023-03-17T17:01:03.118Z,1.97
2023-03-17T17:03:31.412Z,1.70
2023-03-17T17:05:58.648Z,2.97
2023-03-17T17:08:25.835Z,1.70
2023-03-17T17:10:53.085Z,1.70
2023-03-17T17:13:20.322Z,1.50
2023-03-17T17:15:47.685Z,1.90
2023-03-17T17:18:21.880Z,1.73
2023-03-17T17:20:49.663Z,1.73
2023-03-17T17:23:24.104Z,1.50
2023-03-17T17:25:51.444Z,1.60
2023-03-17T17:28:21.395Z,1.57
2023-03-17T17:30:50.641Z,1.83
2023-03-17T17:33:18.088Z,1.50
2023-03-17T17:35:45.764Z,1.43
2023-03-17T17:38:23.452Z,1.60
2023-03-17T17:40:50.817Z,2.23
2023-03-17T17:43:18.307Z,1.50
2023-03-17T17:45:49.318Z,1.60
2023-03-17T17:48:18.450Z,1.80
2023-03-17T17:50:45.687Z,1.90
2023-03-17T17:53:13.458Z,1.83
2023-03-17T17:55:41.756Z,1.70
2023-03-17T17:58:11.694Z,2.20
2023-03-17T18:00:38.853Z,2.00
2023-03-17T18:03:06.225Z,2.10
2023-03-17T18:05:33.366Z,1.93
2023-03-17T18:08:02.419Z,2.20
2023-03-17T18:10:30.431Z,2.07
2023-03-17T18:12:58.020Z,2.20
2023-03-17T18:15:26.544Z,2.20
2023-03-17T18:17:54.127Z,2.10
2023-03-17T18:20:22.567Z,2.13
2023-03-17T18:22:50.765Z,1.77
2023-03-17T18:25:19.403Z,2.20
2023-03-17T18:27:47.324Z,2.13
2023-03-17T18:30:21.202Z,1.97
2023-03-17T18:32:49.866Z,2.63
2023-03-17T18:35:19.178Z,1.93
2023-03-17T18:37:46.401Z,2.07
2023-03-17T18:40:17.992Z,2.13
2023-03-17T18:42:46.015Z,2.00
2023-03-17T18:45:13.583Z,2.63
2023-03-17T18:47:42.117Z,2.03
2023-03-17T18:50:12.209Z,2.63
2023-03-17T18:52:41.147Z,2.57
2023-03-17T18:55:09.398Z,2.10
2023-03-17T18:57:36.765Z,2.47
2023-03-17T19:00:05.239Z,2.27
2023-03-17T19:02:33.301Z,2.10
2023-03-17T19:05:00.881Z,2.17
2023-03-17T19:07:28.094Z,2.00
2023-03-17T19:09:55.844Z,2.40
2023-03-17T19:12:23.148Z,2.30
2023-03-17T19:14:50.480Z,3.10
2023-03-17T19:17:18.216Z,2.37
2023-03-17T19:19:45.621Z,2.33
2023-03-17T19:22:13.042Z,2.27
2023-03-17T19:24:41.200Z,2.10
2023-03-17T19:27:08.465Z,2.00
2023-03-17T19:29:35.664Z,3.53
2023-03-17T19:32:02.884Z,2.30
2023-03-17T19:34:30.096Z,2.20
2023-03-17T19:36:57.281Z,2.23
2023-03-17T19:39:24.562Z,2.47
2023-03-17T19:41:55.130Z,3.27
2023-03-17T19:44:22.767Z,2.40
2023-03-17T19:46:50.442Z,2.27
2023-03-17T19:49:17.887Z,2.10
2023-03-17T19:51:45.119Z,2.30
2023-03-17T19:54:12.851Z,2.77
2023-03-17T19:56:40.508Z,3.60
2023-03-17T19:59:08.974Z,3.03
2023-03-17T20:01:37.863Z,2.97
2023-03-17T20:04:06.989Z,2.60
2023-03-17T20:06:34.712Z,2.40
2023-03-17T20:09:04.287Z,2.20
2023-03-17T20:11:33.961Z,2.40
2023-03-17T20:14:02.147Z,2.53
2023-03-17T20:16:32.722Z,2.70
2023-03-17T20:19:00.446Z,3.07
2023-03-17T20:21:27.773Z,2.10
2023-03-17T20:23:54.998Z,2.50
2023-03-17T20:26:22.155Z,2.50
2023-03-17T20:28:49.420Z,2.20
2023-03-17T20:31:17.185Z,2.13
2023-03-17T20:33:44.517Z,2.60
2023-03-17T20:36:12.924Z,2.70
2023-03-17T20:38:40.664Z,2.40
2023-03-17T20:41:12.619Z,2.40
2023-03-17T20:43:40.401Z,2.47
2023-03-17T20:46:09.131Z,2.53
2023-03-17T20:48:37.249Z,2.80
2023-03-17T20:51:06.388Z,2.10
2023-03-17T20:53:34.420Z,2.50
2023-03-17T20:56:02.589Z,4.10
2023-03-17T20:58:30.489Z,2.20
2023-03-17T21:00:58.532Z,2.57
2023-03-17T21:03:25.837Z,2.53
2023-03-17T21:05:53.483Z,2.53
2023-03-17T21:08:21.130Z,2.30
2023-03-17T21:10:48.257Z,2.53
2023-03-17T21:13:17.808Z,2.60
2023-03-17T21:15:45.367Z,2.50
2023-03-17T21:18:13.761Z,2.60
2023-03-17T21:20:42.272Z,2.60
2023-03-17T21:23:09.525Z,3.60
2023-03-17T21:25:37.089Z,2.90
2023-03-17T21:28:08.180Z,2.53
2023-03-17T21:30:36.970Z,3.07
2023-03-17T21:33:04.747Z,2.50
2023-03-17T21:35:34.704Z,2.27
2023-03-17T21:38:02.065Z,3.20
2023-03-17T21:40:33.225Z,2.50
2023-03-17T21:43:00.835Z,3.13
2023-03-17T21:45:28.594Z,2.53
2023-03-17T21:47:55.950Z,2.40
2023-03-17T21:50:23.164Z,3.00
2023-03-17T21:52:50.444Z,2.50
2023-03-17T21:55:17.659Z,2.67
2023-03-17T21:57:44.810Z,2.80
2023-03-17T22:00:12.294Z,3.00
2023-03-17T22:02:39.820Z,4.57
2023-03-17T22:05:07.160Z,2.43
2023-03-17T22:07:34.448Z,2.87
2023-03-17T22:10:01.648Z,2.70
2023-03-17T22:12:28.831Z,2.70
2023-03-17T22:14:58.434Z,2.70
2023-03-17T22:17:25.946Z,2.60
2023-03-17T22:19:53.322Z,3.00
2023-03-17T22:22:21.176Z,3.40
2023-03-17T22:24:48.778Z,2.83
2023-03-17T22:27:17.169Z,2.97
2023-03-17T22:29:44.549Z,3.13
2023-03-17T22:32:11.868Z,2.83
2023-03-17T22:34:39.144Z,2.50
2023-03-17T22:37:07.671Z,2.93
2023-03-17T22:39:34.902Z,2.70
2023-03-17T22:42:02.171Z,2.80
2023-03-17T22:44:29.399Z,3.67
2023-03-17T22:46:56.674Z,2.93
2023-03-17T22:49:23.984Z,2.63
2023-03-17T22:51:51.224Z,3.17
2023-03-17T22:54:18.817Z,3.97
2023-03-17T22:56:46.094Z,2.90
2023-03-17T22:59:13.300Z,3.10
2023-03-17T23:01:40.607Z,2.83
2023-03-17T23:04:09.172Z,2.60
2023-03-17T23:06:36.720Z,2.60
2023-03-17T23:09:04.815Z,2.83
2023-03-17T23:11:32.036Z,3.13
2023-03-17T23:13:59.246Z,2.80
2023-03-17T23:16:27.168Z,3.10
2023-03-17T23:18:54.814Z,2.97
2023-03-17T23:21:26.601Z,3.27
2023-03-17T23:23:53.944Z,2.60
2023-03-17T23:26:21.361Z,2.63
2023-03-17T23:28:49.653Z,2.77
2023-03-17T23:31:19.264Z,3.20
2023-03-17T23:33:47.430Z,2.87
2023-03-17T23:36:14.906Z,2.60
2023-03-17T23:38:42.803Z,3.23
2023-03-17T23:41:10.190Z,3.30
2023-03-17T23:43:37.556Z,3.57
2023-03-17T23:46:05.194Z,3.17
2023-03-17T23:48:32.835Z,4.20
2023-03-17T23:51:00.046Z,2.97
2023-03-17T23:53:28.436Z,3.87
2023-03-17T23:55:55.793Z,3.13
2023-03-17T23:58:23.294Z,3.27
